createdAt,value
2022-10-28T00:02:08.227Z,9.07
2022-10-28T00:04:35.288Z,8.63
2022-10-28T00:07:02.394Z,8.37
2022-10-28T00:09:29.463Z,8.33
2022-10-28T00:11:59.001Z,8.00
2022-10-28T00:14:26.161Z,8.50
2022-10-28T00:16:53.203Z,8.40
2022-10-28T00:19:20.226Z,8.20
2022-10-28T00:21:47.274Z,7.07
2022-10-28T00:24:14.480Z,7.80
2022-10-28T00:26:45.920Z,7.80
2022-10-28T00:29:16.922Z,7.60
2022-10-28T00:31:44.019Z,7.80
2022-10-28T00:34:15.123Z,7.50
2022-10-28T00:36:45.332Z,9.00
2022-10-28T00:39:13.926Z,7.93
2022-10-28T00:41:46.164Z,7.60
2022-10-28T00:44:32.019Z,8.53
2022-10-28T00:46:59.063Z,6.70
2022-10-28T00:49:28.292Z,7.10
2022-10-28T00:52:27.285Z,7.27
2022-10-28T00:54:57.334Z,7.60
2022-10-28T00:57:28.549Z,7.10
2022-10-28T01:00:01.080Z,7.70
2022-10-28T01:02:28.465Z,8.23
2022-10-28T01:04:59.570Z,8.33
2022-10-28T01:07:29.365Z,6.97
2022-10-28T01:09:56.456Z,7.00
2022-10-28T01:12:28.517Z,7.10
2022-10-28T01:15:09.385Z,7.50
2022-10-28T01:17:50.189Z,8.17
2022-10-28T01:20:39.713Z,8.00
2022-10-28T01:23:17.180Z,6.53
2022-10-28T01:25:53.753Z,7.20
2022-10-28T01:28:29.291Z,7.03
2022-10-28T01:30:56.383Z,7.13
2022-10-28T01:33:33.752Z,7.27
2022-10-28T01:36:12.129Z,7.53
2022-10-28T01:38:52.778Z,6.90
2022-10-28T01:41:40.129Z,7.97
2022-10-28T01:44:22.202Z,7.67
2022-10-28T01:47:02.331Z,7.53
2022-10-28T01:49:58.946Z,7.10
2022-10-28T01:52:26.696Z,6.87
2022-10-28T01:54:55.337Z,6.90
2022-10-28T01:57:22.449Z,7.40
2022-10-28T01:59:49.602Z,6.67
2022-10-28T02:02:16.927Z,7.07
2022-10-28T02:04:43.991Z,6.00
2022-10-28T02:07:11.191Z,7.10
2022-10-28T02:09:43.371Z,7.00
2022-10-28T02:12:22.431Z,7.20
2022-10-28T02:15:12.021Z,6.40
2022-10-28T02:17:49.743Z,6.53
2022-10-28T02:20:16.787Z,6.27
2022-10-28T02:22:46.658Z,7.30
2022-10-28T02:25:29.019Z,6.47
2022-10-28T02:27:57.571Z,5.83
2022-10-28T02:30:33.587Z,7.23
2022-10-28T02:33:01.913Z,5.80
2022-10-28T02:35:31.469Z,6.17
2022-10-28T02:37:59.191Z,6.00
2022-10-28T02:40:27.023Z,6.40
2022-10-28T02:42:55.816Z,6.37
2022-10-28T02:45:24.230Z,5.70
2022-10-28T02:48:05.161Z,5.40
2022-10-28T02:54:04.674Z,6.20
2022-10-28T02:56:32.420Z,5.97
2022-10-28T02:58:59.780Z,5.83
2022-10-28T03:01:26.996Z,6.00
2022-10-28T03:03:54.179Z,5.60
2022-10-28T03:06:21.363Z,6.20
2022-10-28T03:08:48.469Z,5.63
2022-10-28T03:11:15.524Z,5.80
2022-10-28T03:13:42.761Z,6.03
2022-10-28T03:16:09.828Z,5.20
2022-10-28T03:18:36.853Z,5.50
2022-10-28T03:21:03.863Z,5.07
2022-10-28T03:23:32.818Z,5.40
2022-10-28T03:25:59.964Z,5.73
2022-10-28T03:28:27.086Z,6.10
2022-10-28T03:30:54.118Z,5.00
2022-10-28T03:33:21.183Z,4.90
2022-10-28T03:35:48.239Z,4.67
2022-10-28T03:38:15.320Z,4.57
2022-10-28T03:40:42.381Z,5.10
2022-10-28T03:43:09.462Z,4.83
2022-10-28T03:45:36.593Z,4.67
2022-10-28T03:48:03.716Z,4.10
2022-10-28T03:50:30.778Z,4.30
2022-10-28T03:52:57.911Z,5.00
2022-10-28T03:55:25.751Z,5.53
2022-10-28T03:57:53.467Z,5.83
2022-10-28T04:00:20.790Z,5.10
2022-10-28T04:02:51.633Z,5.20
2022-10-28T04:05:19.544Z,4.63
2022-10-28T04:07:46.875Z,4.90
2022-10-28T04:10:13.987Z,5.77
2022-10-28T04:12:41.014Z,4.60
2022-10-28T04:15:08.349Z,3.87
2022-10-28T04:17:35.448Z,4.17
2022-10-28T04:20:02.587Z,4.40
2022-10-28T04:22:29.693Z,5.37
2022-10-28T04:24:56.817Z,4.07
2022-10-28T04:27:24.003Z,4.90
2022-10-28T04:29:51.031Z,4.50
2022-10-28T04:32:18.062Z,4.87
2022-10-28T04:34:45.219Z,4.83
2022-10-28T04:37:14.113Z,4.60
2022-10-28T04:39:44.021Z,4.63
2022-10-28T04:42:11.312Z,5.10
2022-10-28T04:44:38.510Z,3.80
2022-10-28T04:47:05.958Z,4.03
2022-10-28T04:49:36.646Z,4.17
2022-10-28T04:52:06.054Z,5.07
2022-10-28T04:54:33.108Z,4.03
2022-10-28T04:57:00.219Z,4.27
2022-10-28T04:59:27.394Z,3.90
2022-10-28T05:01:54.546Z,4.10
2022-10-28T05:04:21.628Z,4.17
2022-10-28T05:06:48.725Z,4.10
2022-10-28T05:09:15.825Z,4.03
2022-10-28T05:11:42.951Z,4.90
2022-10-28T05:14:10.009Z,4.50
2022-10-28T05:16:37.106Z,4.43
2022-10-28T05:19:04.146Z,5.00
2022-10-28T05:21:31.189Z,4.53
2022-10-28T05:23:58.209Z,4.87
2022-10-28T05:26:25.329Z,5.13
2022-10-28T05:28:52.381Z,4.53
2022-10-28T05:31:19.425Z,4.43
2022-10-28T05:33:46.429Z,3.90
2022-10-28T05:36:13.478Z,4.50
2022-10-28T05:38:42.443Z,4.50
2022-10-28T05:41:09.564Z,4.73
2022-10-28T05:43:36.574Z,4.90
2022-10-28T05:46:06.138Z,5.30
2022-10-28T05:48:33.198Z,4.27
2022-10-28T05:51:00.231Z,4.83
2022-10-28T05:53:27.330Z,5.07
2022-10-28T05:55:54.401Z,4.27
2022-10-28T05:58:21.418Z,3.97
2022-10-28T06:00:48.453Z,4.60
2022-10-28T06:03:15.513Z,4.93
2022-10-28T06:05:45.951Z,4.93
2022-10-28T06:08:13.201Z,5.10
2022-10-28T06:10:40.370Z,4.50
2022-10-28T06:13:05.997Z,4.30
2022-10-28T06:15:33.046Z,4.87
2022-10-28T06:18:03.148Z,5.00
2022-10-28T06:20:30.241Z,5.23
2022-10-28T06:22:57.352Z,4.13
2022-10-28T06:25:24.782Z,4.60
2022-10-28T06:27:53.009Z,5.60
2022-10-28T06:30:20.435Z,5.37
2022-10-28T06:32:47.458Z,4.37
2022-10-28T06:35:14.691Z,4.90
2022-10-28T06:37:41.738Z,6.00
2022-10-28T06:40:08.937Z,5.20
2022-10-28T06:42:36.040Z,5.97
2022-10-28T06:45:03.293Z,5.33
2022-10-28T06:47:31.852Z,5.37
2022-10-28T06:49:58.934Z,4.93
2022-10-28T06:52:25.988Z,6.43
2022-10-28T06:54:52.993Z,5.10
2022-10-28T06:57:20.122Z,4.50
2022-10-28T06:59:47.192Z,4.73
2022-10-28T07:02:15.788Z,6.07
2022-10-28T07:04:43.032Z,5.80
2022-10-28T07:07:10.056Z,5.13
2022-10-28T07:09:39.480Z,5.30
2022-10-28T07:12:07.665Z,4.60
2022-10-28T07:14:34.891Z,4.53
2022-10-28T07:17:02.426Z,5.40
2022-10-28T07:19:29.477Z,4.70
2022-10-28T07:21:56.506Z,4.87
2022-10-28T07:24:23.767Z,5.77
2022-10-28T07:26:53.045Z,4.70
2022-10-28T07:29:22.555Z,4.77
2022-10-28T07:31:49.611Z,4.97
2022-10-28T07:34:16.722Z,4.93
2022-10-28T07:36:43.758Z,4.60
2022-10-28T07:39:10.834Z,4.60
2022-10-28T07:41:38.066Z,4.70
2022-10-28T07:44:05.159Z,4.77
2022-10-28T07:46:32.189Z,5.10
2022-10-28T07:48:59.252Z,6.03
2022-10-28T07:51:26.277Z,4.53
2022-10-28T07:53:53.332Z,5.70
2022-10-28T07:56:20.358Z,5.37
2022-10-28T07:58:47.386Z,5.20
2022-10-28T08:01:15.164Z,4.73
2022-10-28T08:03:42.411Z,4.83
2022-10-28T08:06:10.829Z,5.50
2022-10-28T08:08:38.033Z,5.10
2022-10-28T08:11:22.615Z,4.90
2022-10-28T08:13:49.682Z,5.47
2022-10-28T08:16:16.770Z,6.07
2022-10-28T08:18:45.710Z,5.60
2022-10-28T08:21:12.844Z,5.27
2022-10-28T08:23:41.347Z,5.07
2022-10-28T08:26:08.407Z,5.27
2022-10-28T08:28:35.527Z,5.90
2022-10-28T08:31:10.466Z,5.37
2022-10-28T08:33:38.265Z,5.33
2022-10-28T08:36:05.621Z,5.17
2022-10-28T08:38:32.662Z,5.70
2022-10-28T08:41:08.920Z,4.73
2022-10-28T08:43:56.619Z,4.30
2022-10-28T08:46:47.009Z,5.40
2022-10-28T08:49:15.291Z,4.33
2022-10-28T08:51:45.124Z,5.00
2022-10-28T08:54:38.347Z,4.83
2022-10-28T08:57:06.515Z,4.70
2022-10-28T08:59:34.833Z,4.77
2022-10-28T09:02:03.936Z,4.10
2022-10-28T09:04:36.940Z,4.07
2022-10-28T09:07:04.002Z,4.83
2022-10-28T09:09:31.086Z,3.67
2022-10-28T09:12:07.030Z,4.03
2022-10-28T09:14:40.354Z,3.67
2022-10-28T09:17:12.914Z,4.30
2022-10-28T09:19:46.308Z,3.47
2022-10-28T09:22:15.277Z,3.40
2022-10-28T09:24:48.367Z,3.80
2022-10-28T09:27:20.274Z,4.30
2022-10-28T09:29:56.457Z,4.70
2022-10-28T09:32:26.345Z,5.23
2022-10-28T09:34:55.685Z,4.50
2022-10-28T09:37:22.758Z,4.50
2022-10-28T09:40:03.622Z,4.43
2022-10-28T09:42:31.781Z,3.97
2022-10-28T09:45:00.199Z,4.03
2022-10-28T09:47:31.631Z,4.43
2022-10-28T09:49:59.888Z,4.73
2022-10-28T09:52:28.025Z,4.90
2022-10-28T09:54:56.185Z,4.93
2022-10-28T09:57:23.273Z,4.40
2022-10-28T09:59:50.517Z,4.37
2022-10-28T10:02:27.467Z,4.00
2022-10-28T10:04:57.808Z,4.77
2022-10-28T10:07:26.897Z,4.80
2022-10-28T10:09:53.985Z,3.90
2022-10-28T10:12:21.048Z,4.90
2022-10-28T10:14:51.261Z,4.27
2022-10-28T10:17:22.667Z,4.30
2022-10-28T10:20:02.777Z,3.90
2022-10-28T10:22:30.935Z,3.83
2022-10-28T10:24:58.120Z,4.00
2022-10-28T10:27:25.286Z,3.77
2022-10-28T10:29:52.742Z,3.40
2022-10-28T10:32:20.685Z,3.57
2022-10-28T10:35:01.920Z,4.07
2022-10-28T10:37:29.483Z,4.10
2022-10-28T10:39:59.360Z,3.37
2022-10-28T10:42:27.392Z,3.97
2022-10-28T10:45:02.309Z,4.03
2022-10-28T10:47:29.463Z,3.57
2022-10-28T10:50:14.307Z,4.30
2022-10-28T10:52:42.039Z,3.77
2022-10-28T10:55:09.171Z,4.30
2022-10-28T10:57:36.280Z,3.87
2022-10-28T11:00:03.629Z,3.40
2022-10-28T11:02:40.959Z,3.43
2022-10-28T11:05:09.215Z,3.70
2022-10-28T11:07:36.584Z,3.80
2022-10-28T11:10:03.655Z,4.00
2022-10-28T11:12:35.524Z,3.90
2022-10-28T11:15:21.305Z,3.53
2022-10-28T11:17:55.130Z,3.27
2022-10-28T11:20:31.159Z,4.23
2022-10-28T11:22:58.202Z,4.27
2022-10-28T11:25:29.142Z,4.20
2022-10-28T11:28:03.107Z,3.40
2022-10-28T11:30:43.980Z,3.93
2022-10-28T11:33:29.563Z,3.00
2022-10-28T11:35:59.964Z,3.20
2022-10-28T11:38:30.173Z,3.40
2022-10-28T11:40:57.173Z,3.03
2022-10-28T11:43:30.515Z,3.70
2022-10-28T11:46:04.804Z,3.77
2022-10-28T11:48:47.669Z,4.23
2022-10-28T11:51:26.924Z,3.53
2022-10-28T11:54:02.862Z,3.20
2022-10-28T11:56:33.343Z,4.00
2022-10-28T11:59:20.639Z,3.97
2022-10-28T12:02:06.266Z,3.70
2022-10-28T12:04:37.276Z,2.87
2022-10-28T12:07:13.643Z,3.37
2022-10-28T12:09:59.312Z,3.87
2022-10-28T12:12:48.685Z,3.57
2022-10-28T12:15:37.092Z,3.23
2022-10-28T12:18:12.521Z,3.80
2022-10-28T12:20:51.783Z,2.87
2022-10-28T12:23:19.031Z,3.83
2022-10-28T12:25:47.120Z,3.60
2022-10-28T12:28:19.262Z,3.10
2022-10-28T12:30:46.296Z,3.00
2022-10-28T12:33:18.260Z,3.17
2022-10-28T12:36:08.359Z,2.73
2022-10-28T12:38:37.795Z,2.90
2022-10-28T12:41:07.325Z,3.30
2022-10-28T12:43:47.963Z,3.60
2022-10-28T12:46:18.639Z,2.57
2022-10-28T12:48:47.580Z,3.03
2022-10-28T12:51:40.921Z,2.70
2022-10-28T12:54:28.428Z,2.97
2022-10-28T12:56:56.888Z,2.30
2022-10-28T12:59:31.614Z,2.73
2022-10-28T13:02:01.273Z,2.20
2022-10-28T13:04:28.764Z,2.80
2022-10-28T13:07:10.369Z,3.13
2022-10-28T13:09:40.526Z,2.50
2022-10-28T13:12:22.569Z,2.00
2022-10-28T13:17:59.324Z,2.70
2022-10-28T13:20:49.697Z,2.70
2022-10-28T13:23:29.144Z,2.20
2022-10-28T13:25:59.308Z,2.73
2022-10-28T13:28:31.198Z,2.33
2022-10-28T13:30:59.317Z,2.40
2022-10-28T13:33:29.678Z,2.40
2022-10-28T13:36:07.962Z,2.60
2022-10-28T13:38:35.301Z,2.37
2022-10-28T13:41:02.392Z,2.27
2022-10-28T13:43:48.282Z,3.10
2022-10-28T13:46:36.707Z,2.50
2022-10-28T13:49:42.197Z,2.83
2022-10-28T13:52:12.001Z,3.50
2022-10-28T13:54:44.881Z,2.17
2022-10-28T13:57:30.695Z,2.40
2022-10-28T13:59:58.961Z,2.43
2022-10-28T14:02:36.572Z,2.60
2022-10-28T14:05:05.651Z,2.00
2022-10-28T14:07:33.008Z,2.60
2022-10-28T14:10:32.563Z,2.10
2022-10-28T14:13:00.509Z,2.30
2022-10-28T14:15:31.527Z,2.90
2022-10-28T14:18:10.393Z,2.10
2022-10-28T14:20:49.911Z,2.40
2022-10-28T14:23:22.841Z,2.00
2022-10-28T14:25:56.141Z,3.00
2022-10-28T14:28:32.097Z,2.90
2022-10-28T14:31:14.630Z,3.50
2022-10-28T14:33:44.791Z,2.50
2022-10-28T14:36:18.337Z,2.10
2022-10-28T14:38:54.215Z,2.00
2022-10-28T14:41:34.794Z,3.50
2022-10-28T14:44:11.401Z,3.37
2022-10-28T14:46:42.400Z,3.23
2022-10-28T14:49:20.010Z,3.33
2022-10-28T14:51:47.045Z,2.37
2022-10-28T14:54:18.509Z,3.50
2022-10-28T14:56:45.579Z,2.97
2022-10-28T14:59:15.472Z,2.57
2022-10-28T15:01:52.456Z,3.20
2022-10-28T15:04:20.150Z,2.77
2022-10-28T15:06:48.011Z,2.80
2022-10-28T15:09:19.706Z,3.17
2022-10-28T15:11:47.660Z,3.20
2022-10-28T15:14:35.037Z,4.30
2022-10-28T15:17:11.002Z,4.10
2022-10-28T15:19:38.474Z,4.50
2022-10-28T15:22:05.500Z,4.30
2022-10-28T15:24:32.613Z,4.13
2022-10-28T15:26:59.715Z,3.50
2022-10-28T15:29:26.790Z,3.33
2022-10-28T15:32:13.756Z,3.13
2022-10-28T15:34:41.614Z,3.17
2022-10-28T15:37:08.687Z,4.30
2022-10-28T15:39:35.756Z,3.80
2022-10-28T15:42:02.934Z,4.00
2022-10-28T15:44:34.199Z,4.50
2022-10-28T15:47:01.555Z,4.20
2022-10-28T15:49:34.962Z,3.37
2022-10-28T15:52:17.159Z,3.30
2022-10-28T15:54:56.620Z,3.13
2022-10-28T15:57:24.286Z,2.80
2022-10-28T16:00:11.270Z,3.30
2022-10-28T16:02:41.842Z,3.30
2022-10-28T16:05:27.865Z,3.93
2022-10-28T16:07:55.194Z,3.37
2022-10-28T16:10:22.478Z,3.40
2022-10-28T16:12:49.496Z,3.77
2022-10-28T16:15:16.579Z,4.30
2022-10-28T16:17:43.605Z,4.97
2022-10-28T16:20:19.016Z,7.83
2022-10-28T16:22:46.489Z,6.90
2022-10-28T16:25:14.906Z,6.83
2022-10-28T16:27:42.036Z,6.40
2022-10-28T16:30:09.493Z,6.40
2022-10-28T16:32:46.467Z,5.50
2022-10-28T16:35:14.352Z,5.50
2022-10-28T16:37:44.575Z,5.20
2022-10-28T16:40:37.647Z,6.10
2022-10-28T16:43:01.446Z,6.27
2022-10-28T16:45:28.527Z,10.07
2022-10-28T16:47:55.875Z,11.33
2022-10-28T16:50:23.400Z,10.73
2022-10-28T16:52:50.479Z,10.33
2022-10-28T16:55:19.365Z,10.03
2022-10-28T16:57:46.414Z,8.77
2022-10-28T17:00:14.127Z,11.20
2022-10-28T17:02:41.434Z,11.27
2022-10-28T17:05:16.850Z,11.17
2022-10-28T17:07:43.966Z,11.90
2022-10-28T17:10:11.933Z,11.70
2022-10-28T17:12:39.043Z,13.43
2022-10-28T17:15:06.322Z,14.30
2022-10-28T17:17:33.484Z,13.30
2022-10-28T17:20:08.668Z,12.70
2022-10-28T17:22:35.770Z,15.63
2022-10-28T17:25:02.837Z,15.77
2022-10-28T17:27:30.027Z,17.00
2022-10-28T17:29:57.195Z,16.37
2022-10-28T17:32:24.465Z,14.53
2022-10-28T17:34:51.598Z,15.57
2022-10-28T17:37:18.618Z,15.60
2022-10-28T17:39:45.734Z,13.40
2022-10-28T17:42:12.923Z,14.17
2022-10-28T17:44:40.277Z,15.83
2022-10-28T17:47:07.355Z,17.10
2022-10-28T17:49:36.383Z,14.43
2022-10-28T17:52:03.512Z,18.03
2022-10-28T17:54:30.589Z,18.50
2022-10-28T17:56:57.610Z,18.93
2022-10-28T17:59:24.696Z,20.13
2022-10-28T18:01:51.904Z,24.23
2022-10-28T18:04:20.108Z,24.77
2022-10-28T18:06:47.138Z,26.37
2022-10-28T18:09:14.247Z,28.90
2022-10-28T18:11:41.356Z,29.33
2022-10-28T18:14:08.387Z,29.03
2022-10-28T18:16:36.349Z,27.00
2022-10-28T18:19:04.308Z,26.30
2022-10-28T18:21:31.533Z,22.83
2022-10-28T18:24:03.774Z,22.60
2022-10-28T18:26:31.872Z,19.40
2022-10-28T18:28:58.980Z,16.20
2022-10-28T18:31:26.133Z,12.90
2022-10-28T18:33:53.174Z,11.47
2022-10-28T18:36:21.446Z,10.10
2022-10-28T18:38:51.674Z,11.00
2022-10-28T18:41:22.511Z,10.70
2022-10-28T18:43:52.929Z,9.73
2022-10-28T18:46:20.189Z,10.40
2022-10-28T18:48:47.326Z,9.77
2022-10-28T18:51:14.652Z,10.10
2022-10-28T18:53:45.178Z,10.00
2022-10-28T18:56:13.117Z,9.53
2022-10-28T18:58:40.212Z,9.20
2022-10-28T19:01:26.196Z,8.73
2022-10-28T19:03:54.289Z,8.27
2022-10-28T19:06:21.409Z,8.40
2022-10-28T19:08:52.501Z,9.27
2022-10-28T19:11:19.579Z,8.60
2022-10-28T19:13:46.649Z,8.17
2022-10-28T19:16:13.741Z,8.70
2022-10-28T19:18:40.854Z,9.27
2022-10-28T19:21:10.583Z,8.30
2022-10-28T19:23:37.821Z,9.70
2022-10-28T19:26:05.497Z,10.30
2022-10-28T19:28:36.738Z,8.10
2022-10-28T19:31:04.259Z,8.33
2022-10-28T19:33:31.393Z,13.90
2022-10-28T19:36:02.273Z,15.33
2022-10-28T19:38:36.260Z,18.20
2022-10-28T19:41:13.182Z,15.97
2022-10-28T19:43:40.226Z,12.77
2022-10-28T19:46:08.213Z,10.10
2022-10-28T19:48:35.323Z,12.27
2022-10-28T19:51:02.442Z,11.13
2022-10-28T19:53:29.589Z,10.30
2022-10-28T19:56:00.481Z,10.40
2022-10-28T19:58:27.807Z,10.10
2022-10-28T20:01:01.938Z,10.30
2022-10-28T20:03:33.072Z,10.27
2022-10-28T20:06:06.776Z,11.17
2022-10-28T20:08:34.764Z,10.80
2022-10-28T20:11:02.213Z,10.67
2022-10-28T20:13:29.304Z,11.93
2022-10-28T20:15:56.825Z,11.27
2022-10-28T20:18:24.020Z,9.67
2022-10-28T20:20:51.114Z,10.03
2022-10-28T20:23:18.177Z,9.80
2022-10-28T20:25:51.891Z,10.43
2022-10-28T20:28:19.057Z,9.90
2022-10-28T20:30:55.409Z,9.10
2022-10-28T20:33:22.442Z,12.70
2022-10-28T20:35:49.469Z,10.70
2022-10-28T20:38:18.616Z,11.93
2022-10-28T20:40:52.156Z,12.50
2022-10-28T20:43:20.308Z,12.33
2022-10-28T20:45:54.286Z,12.80
2022-10-28T20:48:21.732Z,11.87
2022-10-28T20:50:52.546Z,11.17
2022-10-28T20:53:21.746Z,12.30
2022-10-28T20:55:49.180Z,13.20
2022-10-28T20:58:16.232Z,13.20
2022-10-28T21:00:43.241Z,14.20
2022-10-28T21:03:11.026Z,14.33
2022-10-28T21:05:38.472Z,11.90
2022-10-28T21:08:05.688Z,12.43
2022-10-28T21:10:34.112Z,11.80
2022-10-28T21:13:01.225Z,11.47
2022-10-28T21:15:28.235Z,13.00
2022-10-28T21:17:55.498Z,12.00
2022-10-28T21:20:23.101Z,11.80
2022-10-28T21:22:50.227Z,13.80
2022-10-28T21:25:17.257Z,13.67
2022-10-28T21:27:44.620Z,13.00
2022-10-28T21:30:12.108Z,13.60
2022-10-28T21:32:39.555Z,12.53
2022-10-28T21:35:06.966Z,12.77
2022-10-28T21:37:34.262Z,12.67
2022-10-28T21:40:01.394Z,11.63
2022-10-28T21:42:28.456Z,11.63
2022-10-28T21:44:55.682Z,12.33
2022-10-28T21:47:22.760Z,12.83
2022-10-28T21:49:49.812Z,11.17
2022-10-28T21:52:17.496Z,11.30
2022-10-28T21:54:44.592Z,11.20
2022-10-28T21:57:11.788Z,11.33
2022-10-28T21:59:38.896Z,12.13
2022-10-28T22:02:06.130Z,11.53
2022-10-28T22:04:33.524Z,11.20
2022-10-28T22:07:00.559Z,9.80
2022-10-28T22:09:27.605Z,11.17
2022-10-28T22:11:54.635Z,9.60
2022-10-28T22:14:21.681Z,10.47
2022-10-28T22:16:48.770Z,8.47
2022-10-28T22:19:16.209Z,8.93
2022-10-28T22:21:43.583Z,8.70
2022-10-28T22:24:10.691Z,9.10
2022-10-28T22:26:39.672Z,9.80
2022-10-28T22:29:06.759Z,8.63
2022-10-28T22:31:33.887Z,11.13
2022-10-28T22:34:01.169Z,9.87
2022-10-28T22:36:28.924Z,9.37
2022-10-28T22:38:55.962Z,9.00
2022-10-28T22:41:24.369Z,9.17
2022-10-28T22:43:52.129Z,10.17
2022-10-28T22:46:19.297Z,8.23
2022-10-28T22:48:46.385Z,9.30
2022-10-28T22:51:13.614Z,9.00
2022-10-28T22:53:40.935Z,9.43
2022-10-28T22:56:08.343Z,9.70
2022-10-28T22:58:35.423Z,9.07
2022-10-28T23:01:11.575Z,9.33
2022-10-28T23:03:42.591Z,9.87
2022-10-28T23:06:10.002Z,8.93
2022-10-28T23:08:37.738Z,10.50
2022-10-28T23:11:04.835Z,9.20
2022-10-28T23:13:32.004Z,11.03
2022-10-28T23:16:11.307Z,9.93
2022-10-28T23:18:38.436Z,9.93
2022-10-28T23:21:10.388Z,10.20
2022-10-28T23:23:37.460Z,9.90
2022-10-28T23:26:04.611Z,8.80
2022-10-28T23:28:34.238Z,10.33
2022-10-28T23:31:04.415Z,8.80
2022-10-28T23:33:31.705Z,9.20
2022-10-28T23:35:58.932Z,9.07
2022-10-28T23:38:26.204Z,8.70
2022-10-28T23:40:56.896Z,8.87
2022-10-28T23:43:24.002Z,8.10
2022-10-28T23:45:51.053Z,9.10
2022-10-28T23:48:18.128Z,9.10
2022-10-28T23:50:45.319Z,8.10
2022-10-28T23:53:12.506Z,9.67
2022-10-28T23:55:39.631Z,9.17
2022-10-28T23:58:06.709Z,8.93
